Portada
METAR-TAF:

METAR-TAF

Aeropuertos :

Richard Lloyd Jones Jr. Airport

Tulsa, Oklahoma, Estados Unidos

latitud: 36-02-33N, longitud: 095-59-22W, altitud: 194 m

Observación

El informe se hizo hace 24 minutos, a las 07:53 UTC
Viento calma
Temperatura 26°C
Humedad 84%
Presión 1014 hPa
Visibilidad: 16.1 km
Cielo despejado

METAR: KRVS 060753Z 00000KT 10SM CLR 26/23 A2993 RMK AO2 SLP134 T02560233

Hora: 03:17 (08:17 UTC)

Pronóstico

El informe se hizo hace 2 horas y 41 minutos, a las 05:36 UTC
Pronóstico válido del 06 a las 06 UTC al 07 a las 06 UTC
Viento 3 kt con dirección variable
Visibilidad: 10 km
Cielo despejado
A partir de las 06 a las 1600 UTC
Viento 5 kt del sur
Visibilidad: 10 km
Escasas nubes a una altura de 4000 ft
A partir de las 07 a las 0100 UTC
Viento 4 kt del sur-sureste
Visibilidad: 10 km
Cielo despejado

TAF: KRVS 060536Z 0606/0706 VRB03KT P6SM SKC FM061600 18005KT P6SM FEW040 FM070100 15004KT P6SM SKC

Observaciones y pronósticos meteorológicos de más de 4000 aeropuertos (mensajes METAR y TAF).

Los puntos amarillos y rojos representan las estaciones disponibles.

Ponga el ratón en el punto deseado para ver el nombre de la estación.

Haga clic para ver las observaciones y los pronósticos meteorológicos.

Para cambiar el mapa : haga clic en los botones verdes con una cruz de color negro para hacer un zoom, en el botón verde con un guión para alejar o en las flechas verdes para mapas adyacentes.


METAR-TAF: